Time;durP1;ratioP1;P1;durP2;ratioP2;P2;SDS_P1;SDS_P2;PMS_P1;PMS_P2;Temp;Humidity;BMP_temperature;BMP_pressure;BME280_temperature;BME280_humidity;BME280_pressure;Samples;Min_cycle;Max_cycle;Signal;HPM_P1;HPM_P2
2022/12/22 03:26:23;;;;;;;28.65;25.80;;;5.00;99.90;;;;;;5101269;28;20280;-49
2022/12/22 03:28:49;;;;;;;29.57;26.80;;;5.00;99.90;;;;;;5102003;28;20188;-50
2022/12/22 03:31:14;;;;;;;30.57;27.67;;;5.10;99.90;;;;;;5101432;28;20602;-52
2022/12/22 03:33:40;;;;;;;27.77;25.27;;;5.00;99.90;;;;;;5102143;28;20384;-52
2022/12/22 03:36:06;;;;;;;27.97;25.20;;;5.00;99.90;;;;;;5101287;28;20430;-48
2022/12/22 03:38:32;;;;;;;27.85;25.30;;;5.10;99.90;;;;;;5100695;28;20196;-49
2022/12/22 03:40:58;;;;;;;29.40;26.60;;;5.10;99.90;;;;;;5100980;28;20187;-51
2022/12/22 03:46:30;;;;;;;29.58;26.52;;;5.10;99.90;;;;;;5101063;28;20246;-46
2022/12/22 03:49:10;;;;;;;30.08;27.27;;;5.10;99.90;;;;;;5100807;28;20191;-51
2022/12/22 03:51:38;;;;;;;29.40;26.80;;;5.10;99.90;;;;;;5098485;28;20358;-50
2022/12/22 03:54:04;;;;;;;30.80;27.80;;;5.10;99.90;;;;;;5100464;28;20192;-48
2022/12/22 03:56:30;;;;;;;28.83;26.33;;;5.10;99.90;;;;;;5101797;28;20203;-53
2022/12/22 03:58:56;;;;;;;30.80;27.90;;;5.10;99.90;;;;;;5100498;28;20220;-53
2022/12/22 04:01:21;;;;;;;29.63;26.80;;;5.10;99.90;;;;;;5100458;28;20426;-49
2022/12/22 04:03:48;;;;;;;29.03;26.33;;;5.10;99.90;;;;;;5100456;28;20184;-49
2022/12/22 04:06:14;;;;;;;28.10;25.40;;;5.10;99.90;;;;;;5101356;28;20788;-48
2022/12/22 04:08:39;;;;;;;28.97;26.37;;;5.20;99.90;;;;;;5101525;27;20180;-53
2022/12/22 04:13:49;;;;;;;27.92;25.27;;;5.20;99.90;;;;;;5100591;28;20184;-48
2022/12/22 04:16:14;;;;;;;29.07;26.37;;;5.20;99.90;;;;;;5099138;28;20231;-51
2022/12/22 04:18:40;;;;;;;29.00;26.20;;;5.30;99.90;;;;;;5099366;28;20180;-45
2022/12/22 04:21:05;;;;;;;29.80;27.10;;;5.30;99.90;;;;;;5101617;28;20192;-46
2022/12/22 04:23:31;;;;;;;28.13;25.47;;;5.40;99.90;;;;;;5100316;28;20187;-50
2022/12/22 04:25:57;;;;;;;28.47;25.83;;;5.40;99.90;;;;;;5101363;28;20186;-49
2022/12/22 04:28:22;;;;;;;27.80;25.20;;;5.40;99.90;;;;;;5100509;28;20612;-50
2022/12/22 04:30:51;;;;;;;28.23;25.33;;;5.40;99.90;;;;;;5099518;28;20198;-49
2022/12/22 04:33:17;;;;;;;27.02;24.40;;;5.40;99.90;;;;;;5098324;28;20279;-49
2022/12/22 04:35:43;;;;;;;27.75;24.98;;;5.40;99.90;;;;;;5099065;28;20229;-51
2022/12/22 04:38:08;;;;;;;28.97;26.07;;;5.40;99.90;;;;;;5100685;28;20181;-51
2022/12/22 04:40:34;;;;;;;28.70;25.90;;;5.40;99.90;;;;;;5099596;28;20923;-48
2022/12/22 04:42:59;;;;;;;27.17;24.67;;;5.40;99.90;;;;;;5100196;28;20431;-53
2022/12/22 04:45:25;;;;;;;26.97;24.50;;;5.40;99.90;;;;;;5097184;28;20176;-53
2022/12/22 04:47:51;;;;;;;27.13;24.53;;;5.40;99.90;;;;;;5099296;28;20324;-55
2022/12/22 04:50:16;;;;;;;27.00;24.50;;;5.40;99.90;;;;;;5100107;28;20164;-53
2022/12/22 04:52:42;;;;;;;27.73;24.93;;;5.50;99.90;;;;;;5098997;28;20209;-50
2022/12/22 04:55:08;;;;;;;26.97;24.27;;;5.50;99.90;;;;;;5100061;28;20172;-48
2022/12/22 04:57:34;;;;;;;28.05;25.33;;;5.50;99.90;;;;;;5096650;28;20625;-52
2022/12/22 04:59:59;;;;;;;27.43;24.63;;;5.50;99.90;;;;;;5098433;28;20192;-51
2022/12/22 05:02:25;;;;;;;26.83;24.23;;;5.40;99.90;;;;;;5099743;28;20181;-52
2022/12/22 05:04:50;;;;;;;30.27;27.27;;;5.40;99.90;;;;;;5100123;28;20184;-47
2022/12/22 05:07:16;;;;;;;29.10;26.30;;;5.40;99.90;;;;;;5098109;28;20213;-47
2022/12/22 05:09:42;;;;;;;27.90;25.00;;;5.40;99.90;;;;;;5097542;28;20184;-52
2022/12/22 05:14:52;;;;;;;26.15;23.38;;;5.30;99.90;;;;;;5099749;28;20186;-50
2022/12/22 05:17:18;;;;;;;27.23;24.40;;;5.30;99.90;;;;;;5098709;28;20244;-45
2022/12/22 05:19:43;;;;;;;26.85;24.05;;;5.30;99.90;;;;;;5100060;28;20207;-50
2022/12/22 05:22:09;;;;;;;28.00;25.20;;;5.40;99.90;;;;;;5098617;28;20649;-54
2022/12/22 05:24:35;;;;;;;26.53;23.83;;;5.40;99.90;;;;;;5101139;28;20188;-50
2022/12/22 05:27:00;;;;;;;27.17;24.57;;;5.40;99.90;;;;;;5098692;28;20195;-50
2022/12/22 05:29:26;;;;;;;27.10;24.80;;;5.40;99.90;;;;;;5098007;28;20271;-53
2022/12/22 05:31:51;;;;;;;27.87;25.23;;;5.50;99.90;;;;;;5101019;28;20188;-51
2022/12/22 05:34:17;;;;;;;28.00;25.23;;;5.50;99.90;;;;;;5099938;28;20181;-50
2022/12/22 05:36:42;;;;;;;26.77;23.90;;;5.50;99.90;;;;;;5100244;28;20188;-49
2022/12/22 05:39:08;;;;;;;26.33;23.83;;;5.50;99.90;;;;;;5098615;28;20195;-50
2022/12/22 05:41:34;;;;;;;26.40;23.70;;;5.60;99.90;;;;;;5099361;28;20261;-50
2022/12/22 05:43:59;;;;;;;26.63;24.03;;;5.60;99.90;;;;;;5099525;28;20232;-51
2022/12/22 05:46:25;;;;;;;27.73;25.03;;;5.60;99.90;;;;;;5099179;28;20207;-49
2022/12/22 05:48:50;;;;;;;25.67;23.37;;;5.60;99.90;;;;;;5099511;28;20184;-51
2022/12/22 05:51:16;;;;;;;25.43;23.03;;;5.60;99.90;;;;;;5099876;28;20759;-49
2022/12/22 05:53:42;;;;;;;25.63;23.30;;;5.60;99.90;;;;;;5100148;28;20180;-50
2022/12/22 05:56:08;;;;;;;26.13;23.63;;;5.50;99.90;;;;;;5098839;28;20184;-54
2022/12/22 05:58:37;;;;;;;26.50;24.00;;;5.50;99.90;;;;;;5099219;28;20195;-50
2022/12/22 06:01:04;;;;;;;25.98;23.67;;;5.60;99.90;;;;;;5098351;28;20456;-52
2022/12/22 06:03:30;;;;;;;25.65;23.38;;;5.60;99.90;;;;;;5099947;28;20642;-52
2022/12/22 06:05:57;;;;;;;26.05;23.55;;;5.60;99.90;;;;;;5099384;28;20713;-51
2022/12/22 06:08:23;;;;;;;26.02;23.48;;;5.60;99.90;;;;;;5100046;28;20195;-45
2022/12/22 06:10:49;;;;;;;25.30;23.10;;;5.70;99.90;;;;;;5099489;28;20171;-46
2022/12/22 06:13:15;;;;;;;26.80;24.13;;;5.70;99.90;;;;;;5097219;28;20837;-46
2022/12/22 06:15:40;;;;;;;25.15;23.00;;;5.70;99.90;;;;;;5100087;28;20480;-56
2022/12/22 06:18:06;;;;;;;27.77;25.10;;;5.70;99.90;;;;;;5099948;28;20188;-47
2022/12/22 06:20:32;;;;;;;25.20;22.93;;;5.70;99.90;;;;;;5100026;28;20657;-46
2022/12/22 06:22:57;;;;;;;26.73;24.23;;;5.70;99.90;;;;;;5099718;28;20196;-48
2022/12/22 06:25:23;;;;;;;28.00;25.43;;;5.60;99.90;;;;;;5099493;28;20664;-45
2022/12/22 06:27:48;;;;;;;28.20;25.50;;;5.70;99.90;;;;;;5098482;28;20277;-46
2022/12/22 06:30:15;;;;;;;25.80;23.50;;;5.60;99.90;;;;;;5097147;28;20232;-49
2022/12/22 06:32:41;;;;;;;27.52;25.00;;;5.60;99.90;;;;;;5099906;28;20179;-47
2022/12/22 06:35:07;;;;;;;27.70;25.00;;;5.60;99.90;;;;;;5099395;28;20183;-48
2022/12/22 06:37:33;;;;;;;27.65;25.05;;;5.60;99.90;;;;;;5099570;28;20259;-46
2022/12/22 06:39:58;;;;;;;26.97;24.43;;;5.60;99.90;;;;;;5100001;28;20721;-48
2022/12/22 06:45:08;;;;;;;27.42;24.85;;;5.60;99.90;;;;;;5099757;28;20179;-48
2022/12/22 06:47:34;;;;;;;26.83;24.43;;;5.70;99.90;;;;;;5098201;28;20207;-46
2022/12/22 06:49:59;;;;;;;28.57;26.13;;;5.70;99.90;;;;;;5099355;28;20515;-53
2022/12/22 06:52:25;;;;;;;25.63;23.53;;;5.70;99.90;;;;;;5099122;28;20180;-48
2022/12/22 06:54:50;;;;;;;26.80;24.67;;;5.70;99.90;;;;;;5098514;28;20353;-45
2022/12/22 06:57:16;;;;;;;26.20;23.90;;;5.70;99.90;;;;;;5098111;28;20274;-46
2022/12/22 06:59:42;;;;;;;27.97;25.50;;;5.70;99.90;;;;;;5099604;28;20568;-45
2022/12/22 07:02:12;;;;;;;29.20;26.50;;;5.80;99.90;;;;;;5101918;28;20184;-50
2022/12/22 07:04:38;;;;;;;27.95;25.30;;;5.80;99.90;;;;;;5103257;28;20195;-48
2022/12/22 07:07:03;;;;;;;29.60;26.90;;;5.80;99.90;;;;;;5102906;28;20201;-51
2022/12/22 07:09:29;;;;;;;28.07;25.47;;;5.70;99.90;;;;;;5103017;28;20214;-49
2022/12/22 07:11:55;;;;;;;28.87;26.27;;;5.80;99.90;;;;;;5103050;28;20646;-46
2022/12/22 07:14:21;;;;;;;28.63;26.03;;;5.80;99.90;;;;;;5102609;28;20188;-48
2022/12/22 07:16:46;;;;;;;27.57;25.17;;;5.80;99.90;;;;;;5102677;28;20235;-49
2022/12/22 07:19:12;;;;;;;25.00;22.90;;;5.80;99.90;;;;;;5102622;28;20407;-50
2022/12/22 07:21:38;;;;;;;26.65;24.35;;;5.80;99.90;;;;;;5102640;28;20188;-48
2022/12/22 07:24:04;;;;;;;25.57;23.30;;;5.90;99.90;;;;;;5102637;28;20207;-50
2022/12/22 07:26:30;;;;;;;25.48;23.27;;;5.90;99.90;;;;;;5102299;28;20734;-50
2022/12/22 07:28:55;;;;;;;24.90;22.97;;;5.90;99.90;;;;;;5099515;28;20188;-49
2022/12/22 07:31:21;;;;;;;23.90;22.00;;;6.00;99.90;;;;;;5100367;28;20510;-50
2022/12/22 07:33:47;;;;;;;25.17;22.97;;;6.00;99.90;;;;;;5102084;28;20195;-48
2022/12/22 07:36:18;;;;;;;25.07;22.87;;;6.10;99.90;;;;;;5102436;28;20898;-46
2022/12/22 07:38:46;;;;;;;25.08;23.08;;;6.10;99.90;;;;;;5102715;28;20185;-51
2022/12/22 07:43:59;;;;;;;26.52;24.30;;;6.20;99.90;;;;;;5102800;28;20199;-45
2022/12/22 07:46:27;;;;;;;24.73;22.52;;;6.30;99.90;;;;;;5101934;28;20227;-51
2022/12/22 07:51:42;;;;;;;24.08;22.00;;;6.30;99.90;;;;;;5101724;28;20471;-50
2022/12/22 07:54:10;;;;;;;24.50;22.50;;;6.40;99.90;;;;;;5102172;28;20189;-51
2022/12/22 07:56:36;;;;;;;24.75;22.65;;;6.40;99.90;;;;;;5101076;28;20653;-48
2022/12/22 07:59:02;;;;;;;25.38;23.17;;;6.40;99.90;;;;;;5101642;28;20249;-48
2022/12/22 08:01:27;;;;;;;24.87;22.47;;;6.40;99.90;;;;;;5101930;28;20272;-53
2022/12/22 08:03:53;;;;;;;24.13;22.00;;;6.40;99.90;;;;;;5101630;28;20766;-54
2022/12/22 08:06:19;;;;;;;24.33;22.30;;;6.40;99.90;;;;;;5101691;28;20695;-55
2022/12/22 08:08:45;;;;;;;24.37;21.97;;;6.40;99.90;;;;;;5101818;28;20421;-48
2022/12/22 08:11:11;;;;;;;23.43;21.47;;;6.40;99.90;;;;;;5099701;28;20187;-51
2022/12/22 08:13:36;;;;;;;22.70;20.60;;;6.50;99.90;;;;;;5101605;28;20189;-47
2022/12/22 08:16:07;;;;;;;23.90;21.93;;;6.50;99.90;;;;;;5101306;28;20823;-51
2022/12/22 08:18:34;;;;;;;24.03;21.73;;;6.60;99.90;;;;;;5101188;28;20243;-54
2022/12/22 08:21:00;;;;;;;23.25;21.17;;;6.70;99.90;;;;;;5101741;28;20816;-51
2022/12/22 08:23:25;;;;;;;24.17;22.17;;;6.80;99.90;;;;;;5100428;28;20699;-50
2022/12/22 08:25:59;;;;;;;21.80;20.10;;;6.90;99.90;;;;;;5100307;28;20415;-50
2022/12/22 08:28:25;;;;;;;22.00;20.20;;;7.00;99.90;;;;;;5101142;28;20545;-49
2022/12/22 08:30:52;;;;;;;22.87;20.87;;;7.10;99.90;;;;;;5100958;28;20503;-50
2022/12/22 08:33:17;;;;;;;22.63;20.73;;;7.20;99.90;;;;;;5099752;28;20417;-52
2022/12/22 08:35:43;;;;;;;21.83;20.03;;;7.20;99.90;;;;;;5100599;28;20693;-53
2022/12/22 08:38:11;;;;;;;22.60;20.60;;;7.30;99.90;;;;;;5101507;28;20191;-49
2022/12/22 08:40:37;;;;;;;20.67;18.90;;;7.30;99.90;;;;;;5099641;28;20224;-50
2022/12/22 08:43:06;;;;;;;21.00;19.30;;;7.40;99.90;;;;;;5100921;28;20504;-51
2022/12/22 08:45:32;;;;;;;21.37;19.47;;;7.50;99.90;;;;;;5100929;28;20926;-53
2022/12/22 08:47:58;;;;;;;21.53;19.63;;;7.70;99.90;;;;;;5100833;28;20452;-52
2022/12/22 08:50:23;;;;;;;20.67;18.87;;;7.90;99.90;;;;;;5100710;28;20938;-52
2022/12/22 08:52:49;;;;;;;19.93;18.43;;;8.20;99.90;;;;;;5101033;28;20195;-52
2022/12/22 08:55:14;;;;;;;20.93;19.23;;;8.60;99.90;;;;;;5099465;28;20184;-51
2022/12/22 08:57:40;;;;;;;19.20;17.60;;;8.70;99.90;;;;;;5100129;28;20223;-56
2022/12/22 09:00:08;;;;;;;19.40;17.80;;;8.80;99.90;;;;;;5101007;28;20693;-52
2022/12/22 09:02:34;;;;;;;19.70;17.90;;;8.80;99.90;;;;;;5101163;28;20460;-51
2022/12/22 09:05:00;;;;;;;19.60;17.97;;;9.00;99.90;;;;;;5100264;28;21326;-48
2022/12/22 09:07:25;;;;;;;20.53;18.93;;;9.20;99.90;;;;;;5100645;28;20449;-51
2022/12/22 09:09:51;;;;;;;19.00;17.50;;;9.50;99.90;;;;;;5100208;28;20175;-54
2022/12/22 09:12:17;;;;;;;19.80;18.20;;;9.60;99.90;;;;;;5099731;28;20183;-49
2022/12/22 09:14:43;;;;;;;18.10;16.80;;;9.70;99.90;;;;;;5100149;28;20176;-52
2022/12/22 09:17:08;;;;;;;19.07;17.60;;;10.00;99.90;;;;;;5100426;28;20973;-51
2022/12/22 09:19:34;;;;;;;17.57;16.23;;;10.10;99.90;;;;;;5100279;28;20207;-49
2022/12/22 09:22:00;;;;;;;18.97;17.47;;;10.10;99.90;;;;;;5100302;28;20180;-50
2022/12/22 09:24:25;;;;;;;19.57;17.97;;;10.00;99.90;;;;;;5098955;28;20441;-55
2022/12/22 09:26:51;;;;;;;18.90;17.40;;;9.90;99.90;;;;;;5100000;28;20204;-49
2022/12/22 09:29:16;;;;;;;20.10;18.30;;;10.00;99.90;;;;;;5100262;28;20183;-48
2022/12/22 09:31:43;;;;;;;19.33;17.83;;;10.20;99.90;;;;;;5100745;28;20254;-53
2022/12/22 09:34:08;;;;;;;18.30;16.90;;;10.50;99.90;;;;;;5099455;28;20299;-50
2022/12/22 09:36:34;;;;;;;20.47;18.87;;;10.80;99.90;;;;;;5100516;28;20462;-50
2022/12/22 09:39:05;;;;;;;18.00;16.50;;;11.00;99.90;;;;;;5100323;28;20857;-48
2022/12/22 09:41:33;;;;;;;19.37;17.90;;;11.00;99.90;;;;;;5100323;28;20585;-50
2022/12/22 09:44:31;;;;;;;19.60;18.10;;;10.90;99.90;;;;;;5099849;28;20417;-52
2022/12/22 09:47:00;;;;;;;18.33;17.03;;;10.70;99.90;;;;;;5099614;28;20472;-55
2022/12/22 09:49:26;;;;;;;19.23;17.63;;;10.60;99.90;;;;;;5099758;28;20421;-53
2022/12/22 09:51:56;;;;;;;18.17;16.87;;;10.30;99.90;;;;;;5099152;28;20498;-48
2022/12/22 09:54:23;;;;;;;17.30;16.00;;;10.20;99.90;;;;;;5098877;28;20528;-47
2022/12/22 09:56:49;;;;;;;16.77;15.57;;;10.10;99.90;;;;;;5099750;28;20417;-50
2022/12/22 09:59:18;;;;;;;16.70;15.30;;;10.10;99.90;;;;;;5099154;28;20414;-51
2022/12/22 10:01:52;;;;;;;17.33;15.90;;;10.00;99.90;;;;;;5100091;28;20180;-54
2022/12/22 10:04:56;;;;;;;16.63;15.43;;;10.00;99.90;;;;;;5099847;28;20430;-53
2022/12/22 10:07:32;;;;;;;18.23;16.93;;;9.90;99.90;;;;;;5100145;28;20480;-48
2022/12/22 10:10:19;;;;;;;17.93;16.63;;;9.90;99.90;;;;;;5099771;28;20406;-48
2022/12/22 10:12:48;;;;;;;18.83;17.53;;;10.00;99.90;;;;;;5099830;28;20406;-50
2022/12/22 10:15:13;;;;;;;17.77;16.47;;;10.00;99.90;;;;;;5099754;28;20418;-50
2022/12/22 10:17:39;;;;;;;17.83;16.50;;;10.00;99.90;;;;;;5099459;28;20522;-52
2022/12/22 10:20:19;;;;;;;18.47;17.07;;;10.10;99.90;;;;;;5099703;28;20680;-47
2022/12/22 10:23:05;;;;;;;16.90;15.60;;;10.20;99.90;;;;;;5098525;28;20180;-51
2022/12/22 10:25:49;;;;;;;17.77;16.37;;;10.20;99.90;;;;;;5099554;28;20797;-48
2022/12/22 10:28:22;;;;;;;18.33;16.93;;;10.20;99.90;;;;;;5099458;28;20566;-48
2022/12/22 10:30:49;;;;;;;18.43;17.03;;;10.20;99.90;;;;;;5100184;28;20875;-49
2022/12/22 10:33:17;;;;;;;19.60;18.10;;;10.20;99.90;;;;;;5100285;28;20520;-54
2022/12/22 10:35:49;;;;;;;18.03;16.73;;;10.20;99.90;;;;;;5103803;28;20184;-52
2022/12/22 10:38:25;;;;;;;18.90;17.50;;;10.20;99.90;;;;;;5103623;28;20425;-49
2022/12/22 10:41:00;;;;;;;17.13;15.93;;;10.10;99.90;;;;;;5103483;28;20424;-48
2022/12/22 10:43:36;;;;;;;16.40;15.10;;;10.10;99.90;;;;;;5103626;28;20772;-52
2022/12/22 10:46:03;;;;;;;17.13;15.77;;;10.00;99.90;;;;;;5103176;28;20424;-50
2022/12/22 10:48:37;;;;;;;17.03;15.83;;;9.90;99.90;;;;;;5103287;28;20775;-57
2022/12/22 10:51:06;;;;;;;15.80;14.70;;;9.90;99.90;;;;;;5102849;28;20432;-52
2022/12/22 10:53:40;;;;;;;15.27;14.17;;;9.90;99.90;;;;;;5100003;28;20521;-59
2022/12/22 10:56:07;;;;;;;16.87;15.67;;;9.90;99.90;;;;;;5102229;28;20492;-52
2022/12/22 10:59:22;;;;;;;16.70;15.50;;;9.90;99.90;;;;;;5101127;28;20436;-50
2022/12/22 11:01:48;;;;;;;16.20;15.00;;;9.80;99.90;;;;;;5067088;28;20430;-49
2022/12/22 11:04:26;;;;;;;16.73;15.53;;;9.70;99.90;;;;;;5102843;28;20417;-53
2022/12/22 11:06:54;;;;;;;16.03;14.83;;;9.80;99.90;;;;;;5101795;28;20203;-46
2022/12/22 11:09:20;;;;;;;15.33;14.13;;;9.80;99.90;;;;;;5102988;28;21041;-53
2022/12/22 11:11:51;;;;;;;14.83;13.73;;;9.90;99.90;;;;;;5103886;28;20718;-52
2022/12/22 11:14:44;;;;;;;16.67;15.27;;;9.90;99.90;;;;;;5102810;28;20672;-50
2022/12/22 11:17:32;;;;;;;14.53;13.63;;;10.00;99.90;;;;;;5101046;28;20484;-54
2022/12/22 11:20:16;;;;;;;14.27;13.30;;;10.00;99.90;;;;;;5102801;28;20857;-55
2022/12/22 11:22:54;;;;;;;15.03;14.03;;;10.00;99.90;;;;;;5101829;28;20937;-50
2022/12/22 11:25:25;;;;;;;14.80;13.80;;;10.10;99.90;;;;;;5100093;28;20521;-47
2022/12/22 11:28:25;;;;;;;15.27;14.27;;;10.20;99.90;;;;;;5102682;28;20457;-48
2022/12/22 11:31:17;;;;;;;16.53;15.37;;;10.30;99.90;;;;;;5102212;28;20410;-49
2022/12/22 11:34:16;;;;;;;15.40;14.40;;;10.50;99.90;;;;;;5102423;28;20410;-49
2022/12/22 11:37:06;;;;;;;15.10;14.10;;;10.50;99.90;;;;;;5070582;27;20440;-48
2022/12/22 11:39:43;;;;;;;16.00;14.90;;;10.60;99.90;;;;;;5102334;28;20414;-51
2022/12/22 11:42:25;;;;;;;13.50;12.70;;;10.60;99.90;;;;;;5101010;28;20436;-49
2022/12/22 11:45:16;;;;;;;14.63;13.73;;;10.60;99.90;;;;;;5101075;28;20433;-48
2022/12/22 11:48:06;;;;;;;15.03;14.13;;;10.70;99.90;;;;;;5102490;28;20898;-52
2022/12/22 11:50:48;;;;;;;14.90;13.97;;;10.60;99.90;;;;;;5100935;28;21812;-53
2022/12/22 11:53:32;;;;;;;14.13;13.23;;;10.60;99.90;;;;;;5100903;28;20425;-51
2022/12/22 11:56:25;;;;;;;15.80;14.80;;;10.50;99.90;;;;;;5101959;28;20538;-48
2022/12/22 11:59:00;;;;;;;14.17;13.37;;;10.60;99.90;;;;;;5100426;28;20417;-51
2022/12/22 12:01:45;;;;;;;14.63;13.73;;;10.60;99.90;;;;;;5101743;28;20448;-54
2022/12/22 12:05:00;;;;;;;14.30;13.40;;;10.60;99.90;;;;;;5101464;28;20620;-51
2022/12/22 12:07:37;;;;;;;13.67;12.87;;;10.70;99.90;;;;;;5102206;28;20461;-48
2022/12/22 12:10:25;;;;;;;14.17;13.27;;;11.10;99.90;;;;;;5101704;28;20426;-51
2022/12/22 12:13:18;;;;;;;13.93;13.00;;;11.50;99.90;;;;;;5102239;28;20900;-51
2022/12/22 12:15:52;;;;;;;13.60;12.80;;;11.80;99.90;;;;;;5101485;28;20477;-52
2022/12/22 12:18:43;;;;;;;13.50;12.60;;;12.20;99.90;;;;;;5101675;28;20446;-50
2022/12/22 12:21:24;;;;;;;12.40;11.80;;;12.30;99.90;;;;;;5100920;28;20807;-53
2022/12/22 12:24:27;;;;;;;12.93;12.23;;;12.40;99.90;;;;;;5100961;28;20414;-47
2022/12/22 12:27:01;;;;;;;12.87;12.07;;;12.40;99.90;;;;;;5101229;28;20978;-47
2022/12/22 12:29:33;;;;;;;12.70;12.00;;;12.40;99.90;;;;;;5101180;28;20422;-47
2022/12/22 12:32:05;;;;;;;12.80;12.10;;;12.30;99.90;;;;;;5101347;28;20420;-53
2022/12/22 12:34:36;;;;;;;12.70;12.10;;;12.40;99.90;;;;;;5101404;28;20427;-52
2022/12/22 12:37:21;;;;;;;13.20;12.40;;;12.50;99.90;;;;;;5101153;28;20452;-54
2022/12/22 12:40:15;;;;;;;12.00;11.30;;;12.60;99.90;;;;;;5101222;28;20411;-48
2022/12/22 12:42:45;;;;;;;12.87;12.07;;;12.90;99.90;;;;;;5101069;28;20696;-52
2022/12/22 12:45:44;;;;;;;12.90;12.20;;;13.60;99.90;;;;;;5100852;28;20951;-49
2022/12/22 12:48:22;;;;;;;12.80;12.10;;;14.40;99.90;;;;;;5099253;28;20667;-50
2022/12/22 12:50:55;;;;;;;12.87;12.07;;;15.20;99.90;;;;;;5099209;28;21091;-57
2022/12/22 12:53:22;;;;;;;11.73;11.13;;;15.90;99.30;;;;;;5100558;28;20979;-48
2022/12/22 12:55:50;;;;;;;12.20;11.50;;;16.70;96.10;;;;;;5100314;28;20698;-56
2022/12/22 12:58:36;;;;;;;11.90;11.20;;;17.40;92.60;;;;;;5100165;28;20849;-48
2022/12/22 13:01:10;;;;;;;13.07;12.37;;;18.30;87.50;;;;;;5099740;28;20460;-51
2022/12/22 13:03:43;;;;;;;12.57;11.87;;;18.50;82.60;;;;;;5100765;28;20425;-53
2022/12/22 13:06:29;;;;;;;12.80;12.10;;;18.90;75.20;;;;;;5100159;28;20417;-50
2022/12/22 13:09:01;;;;;;;12.40;11.67;;;18.40;76.70;;;;;;5100664;28;20421;-52
2022/12/22 13:11:35;;;;;;;12.57;11.87;;;17.00;80.40;;;;;;5100778;28;20460;-49
2022/12/22 13:14:02;;;;;;;13.40;12.70;;;15.90;90.30;;;;;;5099468;28;20500;-54
2022/12/22 13:16:31;;;;;;;12.83;12.13;;;15.30;93.20;;;;;;5100206;28;20464;-52
2022/12/22 13:19:00;;;;;;;12.97;12.23;;;15.10;96.20;;;;;;5100633;28;20911;-53
2022/12/22 13:21:29;;;;;;;13.27;12.47;;;14.70;97.20;;;;;;5100617;28;20438;-54
2022/12/22 13:23:55;;;;;;;12.10;11.50;;;14.30;99.90;;;;;;5100456;27;20916;-50
2022/12/22 13:26:24;;;;;;;12.40;11.70;;;14.30;99.90;;;;;;5100029;28;20433;-51
2022/12/22 13:28:58;;;;;;;9.90;9.50;;;14.10;99.90;;;;;;5100076;28;20284;-52
2022/12/22 13:31:35;;;;;;;9.70;9.30;;;13.80;99.90;;;;;;5100408;28;20412;-51
2022/12/22 13:34:18;;;;;;;10.10;9.70;;;13.70;99.90;;;;;;5100281;28;20978;-50
2022/12/22 13:36:47;;;;;;;8.67;8.27;;;13.70;99.90;;;;;;5099578;28;20426;-50
2022/12/22 13:39:14;;;;;;;8.50;8.10;;;13.60;99.90;;;;;;5098784;28;20474;-52
2022/12/22 13:41:45;;;;;;;9.40;9.00;;;13.50;99.90;;;;;;5100438;28;20775;-51
2022/12/22 13:44:17;;;;;;;9.60;9.10;;;13.40;99.90;;;;;;5099814;28;20837;-47
2022/12/22 13:46:42;;;;;;;9.37;8.97;;;13.40;99.90;;;;;;5099745;28;20470;-45
2022/12/22 13:49:14;;;;;;;9.20;8.80;;;13.40;99.90;;;;;;5099861;28;20423;-48
2022/12/22 13:51:40;;;;;;;8.73;8.43;;;13.30;99.90;;;;;;5099565;28;20420;-45
2022/12/22 13:54:31;;;;;;;9.13;8.73;;;13.40;99.90;;;;;;5099937;28;20421;-47
2022/12/22 13:56:59;;;;;;;8.73;8.33;;;13.40;99.90;;;;;;5100181;28;20446;-47
2022/12/22 13:59:29;;;;;;;10.53;10.03;;;13.30;99.90;;;;;;5097829;28;20953;-53
2022/12/22 14:02:00;;;;;;;8.60;8.20;;;13.30;99.90;;;;;;5099794;28;20506;-53
2022/12/22 14:04:26;;;;;;;10.00;9.60;;;13.20;99.90;;;;;;5099818;28;20480;-50
2022/12/22 14:06:53;;;;;;;9.50;9.10;;;13.10;99.90;;;;;;5098894;28;20489;-54
2022/12/22 14:09:26;;;;;;;9.93;9.43;;;13.00;99.90;;;;;;5101985;28;20425;-51
2022/12/22 14:12:01;;;;;;;9.87;9.40;;;13.00;99.90;;;;;;5102388;28;20457;-51
2022/12/22 14:14:39;;;;;;;8.90;8.40;;;12.90;99.90;;;;;;5104178;28;20475;-48
2022/12/22 14:17:27;;;;;;;9.00;8.70;;;12.90;99.90;;;;;;5104248;28;20464;-49
2022/12/22 14:19:58;;;;;;;10.37;9.87;;;12.90;99.90;;;;;;5103069;28;20761;-49
2022/12/22 14:22:26;;;;;;;9.83;9.33;;;12.80;99.90;;;;;;5103553;28;20520;-46
2022/12/22 14:24:57;;;;;;;9.70;9.30;;;12.70;99.90;;;;;;5103927;28;20509;-50
2022/12/22 14:27:40;;;;;;;10.03;9.53;;;12.80;99.90;;;;;;5103537;28;21215;-49
2022/12/22 14:30:34;;;;;;;10.60;10.03;;;12.70;99.90;;;;;;5103705;27;20426;-47
2022/12/22 14:33:14;;;;;;;10.60;10.10;;;12.70;99.90;;;;;;5103559;28;20418;-48
2022/12/22 14:35:39;;;;;;;9.77;9.27;;;12.70;99.90;;;;;;5103688;28;20413;-46
2022/12/22 14:38:20;;;;;;;10.00;9.60;;;12.70;99.90;;;;;;5103742;28;20424;-46
2022/12/22 14:40:46;;;;;;;9.10;8.70;;;12.70;99.90;;;;;;5102673;28;20199;-46
2022/12/22 14:43:17;;;;;;;9.10;8.70;;;12.60;99.90;;;;;;5103268;28;21058;-50
2022/12/22 14:45:44;;;;;;;9.63;9.03;;;12.60;99.90;;;;;;5103102;28;20637;-47
2022/12/22 14:48:25;;;;;;;9.37;8.87;;;12.50;99.90;;;;;;5103099;28;20994;-47
2022/12/22 14:50:53;;;;;;;9.37;8.97;;;12.50;99.90;;;;;;5104230;28;20437;-48
2022/12/22 14:53:25;;;;;;;9.53;9.13;;;12.40;99.90;;;;;;5103966;28;20406;-58
2022/12/22 14:55:52;;;;;;;10.00;9.60;;;12.50;99.90;;;;;;5103365;28;20508;-48
2022/12/22 14:58:20;;;;;;;10.10;9.60;;;12.50;99.90;;;;;;5102460;28;20867;-47
2022/12/22 15:01:07;;;;;;;9.40;8.90;;;12.40;99.90;;;;;;5101291;28;20433;-50
2022/12/22 15:03:35;;;;;;;9.80;9.30;;;12.40;99.90;;;;;;5087746;28;20438;-47
2022/12/22 15:06:25;;;;;;;8.90;8.50;;;12.50;99.90;;;;;;5098075;28;20920;-50
2022/12/22 15:08:53;;;;;;;9.27;8.87;;;12.40;99.90;;;;;;5097728;28;20444;-49
2022/12/22 15:11:22;;;;;;;9.70;9.20;;;12.40;99.90;;;;;;5096082;28;20430;-54
2022/12/22 15:13:50;;;;;;;9.90;9.47;;;12.40;99.90;;;;;;5102815;28;20423;-50
2022/12/22 15:16:21;;;;;;;9.60;9.10;;;12.30;99.90;;;;;;5103179;28;20461;-48
2022/12/22 15:18:48;;;;;;;10.10;9.70;;;12.30;99.90;;;;;;5098177;28;20426;-46
2022/12/22 15:21:16;;;;;;;9.90;9.40;;;12.30;99.90;;;;;;5098303;28;20800;-49
2022/12/22 15:23:42;;;;;;;9.80;9.40;;;12.30;99.90;;;;;;5099321;28;20863;-54
2022/12/22 15:26:09;;;;;;;9.57;9.17;;;12.40;99.90;;;;;;5101976;28;20818;-48
2022/12/22 15:28:35;;;;;;;9.97;9.47;;;12.40;99.90;;;;;;5099625;28;20480;-46
2022/12/22 15:31:02;;;;;;;9.80;9.40;;;12.50;99.90;;;;;;5101075;28;21011;-48
2022/12/22 15:33:29;;;;;;;9.33;8.93;;;12.50;99.90;;;;;;5093937;28;20437;-45
2022/12/22 15:35:55;;;;;;;9.40;9.00;;;12.50;99.90;;;;;;5102315;28;20459;-48
2022/12/22 15:38:23;;;;;;;9.40;8.97;;;12.40;99.90;;;;;;5097242;28;20517;-47
2022/12/22 15:40:49;;;;;;;10.37;9.87;;;12.30;99.90;;;;;;5101814;28;20436;-47
2022/12/22 15:43:15;;;;;;;10.10;9.60;;;12.20;99.90;;;;;;5099142;28;20433;-44
2022/12/22 15:45:41;;;;;;;13.00;12.30;;;12.10;99.90;;;;;;5101161;28;20415;-47
2022/12/22 15:48:12;;;;;;;13.90;13.30;;;12.00;99.90;;;;;;5099709;28;20461;-46
2022/12/22 15:50:42;;;;;;;15.20;14.50;;;11.70;99.90;;;;;;5101780;28;20425;-50
2022/12/22 15:53:13;;;;;;;15.60;14.80;;;11.50;99.90;;;;;;5097200;27;20499;-45
2022/12/22 15:55:41;;;;;;;15.60;14.80;;;11.40;99.90;;;;;;5100292;28;20786;-48
2022/12/22 15:58:11;;;;;;;15.33;14.63;;;11.20;99.90;;;;;;5098907;28;20894;-52
2022/12/22 16:00:36;;;;;;;15.93;15.13;;;11.20;99.90;;;;;;5100138;28;21011;-48
2022/12/22 16:03:03;;;;;;;16.10;15.40;;;11.10;99.90;;;;;;5099865;28;20429;-47
2022/12/22 16:05:29;;;;;;;15.90;15.00;;;11.00;99.90;;;;;;5099268;28;20544;-52
2022/12/22 16:07:55;;;;;;;16.83;16.03;;;10.80;99.90;;;;;;5099428;28;20453;-49
2022/12/22 16:10:26;;;;;;;17.37;16.47;;;10.80;99.90;;;;;;5100588;27;20188;-53
2022/12/22 16:12:58;;;;;;;16.93;16.10;;;10.80;99.90;;;;;;5100967;28;20187;-48
2022/12/22 16:15:26;;;;;;;16.80;15.90;;;10.70;99.90;;;;;;5099982;28;20962;-52
2022/12/22 16:17:52;;;;;;;17.40;16.40;;;10.70;99.90;;;;;;5100455;28;20449;-49
2022/12/22 16:20:19;;;;;;;16.67;15.87;;;10.70;99.90;;;;;;5100857;28;20932;-49
2022/12/22 16:22:47;;;;;;;17.17;16.27;;;10.60;99.90;;;;;;5099749;28;20437;-48
2022/12/22 16:25:17;;;;;;;17.10;16.30;;;10.60;99.90;;;;;;5101600;28;20765;-51
2022/12/22 16:27:46;;;;;;;17.00;16.20;;;10.50;99.90;;;;;;5100533;28;20469;-51
2022/12/22 16:30:20;;;;;;;16.30;15.50;;;10.50;99.90;;;;;;5101068;27;21206;-53
2022/12/22 16:32:46;;;;;;;16.80;16.00;;;10.60;99.90;;;;;;5099810;28;20437;-51
2022/12/22 16:35:11;;;;;;;17.27;16.43;;;10.50;99.90;;;;;;5100072;28;20819;-49